Time;durP1;ratioP1;P1;durP2;ratioP2;P2;SDS_P1;SDS_P2;PMS_P1;PMS_P2;Temp;Humidity;BMP_temperature;BMP_pressure;BME280_temperature;BME280_humidity;BME280_pressure;Samples;Min_cycle;Max_cycle;Signal;HPM_P1;HPM_P2
2022/06/18 00:01:13;;;;;;;;;;;;;;;22.01;59.25;99789.88;3129528;28;20923;-67
2022/06/18 00:02:45;;;;;;;;;;;;;;;22.00;58.87;99794.31;3129556;28;20019;-68
2022/06/18 00:04:18;;;;;;;;;;;;;;;22.00;58.74;99785.53;3129423;28;20182;-68
2022/06/18 00:05:52;;;;;;;;;;;;;;;21.98;59.13;99785.69;3129377;28;20403;-68
2022/06/18 00:07:24;;;;;;;;;;;;;;;21.98;58.86;99780.38;3129306;28;20089;-68
2022/06/18 00:08:55;;;;;;;;;;;;;;;22.00;59.48;99782.88;3123106;28;20307;-68
2022/06/18 00:10:29;;;;;;;;;;;;;;;21.96;60.01;99784.16;3129445;28;20018;-68
2022/06/18 00:13:50;;;;;;;;;;;;;;;21.95;59.36;99790.44;3129621;28;19924;-68
2022/06/18 00:15:23;;;;;;;;;;;;;;;21.95;59.55;99778.00;3129247;28;20326;-68
2022/06/18 00:16:55;;;;;;;;;;;;;;;21.92;60.04;99788.91;3129151;28;19989;-68
2022/06/18 00:18:26;;;;;;;;;;;;;;;21.88;60.43;99784.84;3129538;28;19924;-69
2022/06/18 00:19:58;;;;;;;;;;;;;;;21.85;60.85;99786.94;3129078;28;19925;-69
2022/06/18 00:21:31;;;;;;;;;;;;;;;21.79;60.87;99783.88;3128301;28;19990;-69
2022/06/18 00:23:03;;;;;;;;;;;;;;;21.77;61.03;99785.03;3129101;28;19978;-69
2022/06/18 00:24:34;;;;;;;;;;;;;;;21.75;61.30;99785.16;3129327;28;19936;-69
2022/06/18 00:26:05;;;;;;;;;;;;;;;21.73;61.37;99779.16;3128838;28;19924;-69
2022/06/18 00:27:37;;;;;;;;;;;;;;;21.75;60.77;99773.72;3128853;28;19982;-69
2022/06/18 00:29:10;;;;;;;;;;;;;;;21.76;60.81;99770.91;3128396;28;19924;-69
2022/06/18 00:30:42;;;;;;;;;;;;;;;21.78;60.46;99768.13;3129218;28;19928;-69
2022/06/18 00:32:14;;;;;;;;;;;;;;;21.78;60.52;99765.47;3129180;28;19998;-69
2022/06/18 00:33:45;;;;;;;;;;;;;;;21.79;60.67;99767.16;3128760;28;20424;-69
2022/06/18 00:35:17;;;;;;;;;;;;;;;21.78;60.48;99763.66;3129163;28;19990;-68
2022/06/18 00:36:49;;;;;;;;;;;;;;;21.80;60.19;99760.88;3128844;28;20380;-68
2022/06/18 00:38:25;;;;;;;;;;;;;;;21.82;60.34;99761.56;3128966;28;20430;-68
2022/06/18 00:39:56;;;;;;;;;;;;;;;21.81;60.02;99760.72;3128770;28;20353;-68
2022/06/18 00:41:28;;;;;;;;;;;;;;;21.81;60.20;99754.59;3128532;28;19931;-68
2022/06/18 00:43:02;;;;;;;;;;;;;;;21.80;60.69;99758.22;3128972;28;19987;-68
2022/06/18 00:44:35;;;;;;;;;;;;;;;21.74;60.94;99759.63;3129039;28;20461;-68
2022/06/18 00:46:10;;;;;;;;;;;;;;;21.76;60.68;99754.19;3128646;28;19978;-68
2022/06/18 00:47:48;;;;;;;;;;;;;;;21.74;60.88;99749.03;3128674;28;19935;-68
2022/06/18 00:49:24;;;;;;;;;;;;;;;21.76;60.72;99752.34;3123165;28;19929;-67
2022/06/18 00:50:58;;;;;;;;;;;;;;;21.76;60.27;99749.69;3128502;28;19933;-68
2022/06/18 00:52:36;;;;;;;;;;;;;;;21.79;60.25;99751.25;3129173;28;19925;-68
2022/06/18 00:54:09;;;;;;;;;;;;;;;21.79;60.47;99752.06;3128871;28;20306;-69
2022/06/18 00:55:43;;;;;;;;;;;;;;;21.83;60.69;99751.78;3123858;28;19958;-69
2022/06/18 00:57:16;;;;;;;;;;;;;;;21.83;60.48;99747.34;3124597;28;20231;-69
2022/06/18 00:58:51;;;;;;;;;;;;;;;21.85;60.42;99739.22;3124699;28;19925;-68
2022/06/18 01:00:24;;;;;;;;;;;;;;;21.87;60.02;99740.75;3124450;28;19931;-68
2022/06/18 01:01:57;;;;;;;;;;;;;;;21.88;60.24;99736.28;3124061;28;19925;-68
2022/06/18 01:03:31;;;;;;;;;;;;;;;21.88;60.31;99739.78;3123724;28;19924;-68
2022/06/18 01:05:03;;;;;;;;;;;;;;;21.86;60.45;99731.16;3124593;28;19929;-68
2022/06/18 01:06:34;;;;;;;;;;;;;;;21.84;60.73;99732.28;3124251;28;19928;-68
2022/06/18 01:08:12;;;;;;;;;;;;;;;21.82;60.82;99729.75;3126496;28;20305;-68
2022/06/18 01:09:45;;;;;;;;;;;;;;;21.79;61.26;99724.72;3128799;28;19978;-69
2022/06/18 01:11:21;;;;;;;;;;;;;;;21.80;61.00;99729.06;3122846;28;19925;-69
2022/06/18 01:12:53;;;;;;;;;;;;;;;21.80;61.13;99737.84;3127641;28;19983;-69
2022/06/18 01:14:26;;;;;;;;;;;;;;;21.80;61.00;99723.78;3128697;28;19931;-68
2022/06/18 01:15:58;;;;;;;;;;;;;;;21.80;60.88;99729.06;3128294;28;20378;-68
2022/06/18 01:17:30;;;;;;;;;;;;;;;21.79;60.99;99719.44;3127895;28;19947;-68
2022/06/18 01:19:02;;;;;;;;;;;;;;;21.80;60.72;99715.81;3128452;28;19924;-68
2022/06/18 01:20:38;;;;;;;;;;;;;;;21.81;60.88;99715.66;3129092;28;20011;-69
2022/06/18 01:22:20;;;;;;;;;;;;;;;21.83;60.76;99715.53;3122439;28;19982;-68
2022/06/18 01:23:55;;;;;;;;;;;;;;;21.81;60.87;99718.31;3122617;28;19978;-67
2022/06/18 01:25:29;;;;;;;;;;;;;;;21.78;61.27;99720.41;3122226;28;19925;-68
2022/06/18 01:26:59;;;;;;;;;;;;;;;21.75;61.20;99718.88;3128035;28;20303;-68
2022/06/18 01:28:31;;;;;;;;;;;;;;;21.72;61.13;99718.34;3128461;28;19932;-68
2022/06/18 01:30:03;;;;;;;;;;;;;;;21.65;61.54;99723.38;3128248;28;19929;-68
2022/06/18 01:31:35;;;;;;;;;;;;;;;21.64;61.58;99724.34;3128007;28;19935;-68
2022/06/18 01:33:07;;;;;;;;;;;;;;;21.61;61.32;99721.16;3128241;28;19978;-68
2022/06/18 01:34:39;;;;;;;;;;;;;;;21.60;61.31;99715.00;3128374;28;20411;-68
2022/06/18 01:36:11;;;;;;;;;;;;;;;21.57;61.40;99718.78;3128157;28;19925;-69
2022/06/18 01:37:43;;;;;;;;;;;;;;;21.56;61.50;99718.91;3128120;28;20019;-68
2022/06/18 01:39:18;;;;;;;;;;;;;;;21.53;61.60;99720.06;3128285;28;19932;-68
2022/06/18 01:40:55;;;;;;;;;;;;;;;21.53;61.17;99720.06;3128024;28;20099;-69
2022/06/18 01:42:29;;;;;;;;;;;;;;;21.57;61.07;99728.56;3128327;28;19925;-68
2022/06/18 01:44:03;;;;;;;;;;;;;;;21.60;60.89;99730.09;3128163;28;19940;-68
2022/06/18 01:45:37;;;;;;;;;;;;;;;21.64;60.84;99742.06;3128244;28;19933;-68
2022/06/18 01:47:11;;;;;;;;;;;;;;;21.65;60.62;99726.03;3128040;28;20400;-68
2022/06/18 01:48:44;;;;;;;;;;;;;;;21.66;60.66;99730.34;3127757;28;19932;-68
2022/06/18 01:50:17;;;;;;;;;;;;;;;21.66;60.97;99729.53;3128215;28;19924;-68
2022/06/18 01:51:50;;;;;;;;;;;;;;;21.67;60.67;99731.19;3128113;28;20319;-69
2022/06/18 01:53:24;;;;;;;;;;;;;;;21.66;60.74;99724.22;3123635;28;19924;-68
2022/06/18 01:54:57;;;;;;;;;;;;;;;21.65;60.66;99725.16;3128332;28;19931;-69
2022/06/18 01:56:31;;;;;;;;;;;;;;;21.65;60.57;99725.16;3128120;28;19948;-68
2022/06/18 01:58:06;;;;;;;;;;;;;;;21.64;60.49;99719.03;3128138;28;19925;-69
2022/06/18 01:59:41;;;;;;;;;;;;;;;21.65;60.31;99723.38;3128218;28;20406;-69
2022/06/18 02:01:16;;;;;;;;;;;;;;;21.62;60.26;99718.34;3127989;28;19947;-68
2022/06/18 02:02:48;;;;;;;;;;;;;;;21.61;60.38;99726.44;3128168;28;20427;-67
2022/06/18 02:04:21;;;;;;;;;;;;;;;21.58;60.00;99723.09;3127998;28;19925;-67
2022/06/18 02:05:52;;;;;;;;;;;;;;;21.58;59.91;99723.09;3127492;28;19925;-67
2022/06/18 02:07:24;;;;;;;;;;;;;;;21.59;59.81;99726.56;3128008;28;19998;-68
2022/06/18 02:08:54;;;;;;;;;;;;;;;21.58;59.69;99731.03;3127941;28;19997;-68
2022/06/18 02:10:28;;;;;;;;;;;;;;;21.55;59.71;99726.03;3125900;28;20383;-68
2022/06/18 02:12:03;;;;;;;;;;;;;;;21.55;59.61;99723.38;3126050;28;20333;-68
2022/06/18 02:13:38;;;;;;;;;;;;;;;21.56;59.83;99724.22;3127223;28;19924;-68
2022/06/18 02:15:13;;;;;;;;;;;;;;;21.58;59.39;99715.16;3128089;28;19924;-68
2022/06/18 02:16:46;;;;;;;;;;;;;;;21.61;59.37;99723.78;3128157;28;19929;-69
2022/06/18 02:18:19;;;;;;;;;;;;;;;21.61;59.41;99726.44;3128029;28;20313;-69
2022/06/18 02:19:53;;;;;;;;;;;;;;;21.59;59.42;99723.91;3127655;28;19931;-69
2022/06/18 02:21:25;;;;;;;;;;;;;;;21.60;59.39;99727.44;3127727;28;19925;-69
2022/06/18 02:22:57;;;;;;;;;;;;;;;21.61;59.39;99731.75;3127966;28;19985;-69
2022/06/18 02:24:29;;;;;;;;;;;;;;;21.60;59.45;99732.72;3127927;28;19925;-68
2022/06/18 02:26:01;;;;;;;;;;;;;;;21.60;59.45;99738.03;3127600;28;20333;-67
2022/06/18 02:27:33;;;;;;;;;;;;;;;21.61;59.54;99729.94;3127779;28;19936;-68
2022/06/18 02:29:06;;;;;;;;;;;;;;;21.61;59.54;99732.56;3130821;28;20039;-67
2022/06/18 02:30:37;;;;;;;;;;;;;;;21.63;59.30;99735.09;3127629;28;19924;-68
2022/06/18 02:32:15;;;;;;;;;;;;;;;21.63;59.52;99729.81;3128142;28;19979;-68
2022/06/18 02:33:48;;;;;;;;;;;;;;;21.65;59.57;99730.47;3127906;28;19925;-68
2022/06/18 02:35:19;;;;;;;;;;;;;;;21.63;59.70;99729.81;3125436;28;19925;-68
2022/06/18 02:36:51;;;;;;;;;;;;;;;21.61;59.97;99734.41;3128086;28;19985;-68
2022/06/18 02:38:23;;;;;;;;;;;;;;;21.57;60.00;99725.91;3127834;28;20281;-68
2022/06/18 02:39:57;;;;;;;;;;;;;;;21.56;60.25;99733.03;3127955;28;19924;-68
2022/06/18 02:41:28;;;;;;;;;;;;;;;21.56;60.02;99732.16;3127694;28;20001;-69
2022/06/18 02:43:01;;;;;;;;;;;;;;;21.54;60.52;99728.84;3127464;28;19931;-68
2022/06/18 02:44:34;;;;;;;;;;;;;;;21.52;60.47;99730.78;3128064;28;19933;-68
2022/06/18 02:46:05;;;;;;;;;;;;;;;21.49;60.86;99733.72;3128157;28;20012;-68
2022/06/18 02:47:37;;;;;;;;;;;;;;;21.47;60.62;99730.34;3123605;28;19931;-68
2022/06/18 02:49:10;;;;;;;;;;;;;;;21.41;61.07;99731.75;3126763;28;19929;-68
2022/06/18 02:50:43;;;;;;;;;;;;;;;21.40;61.44;99729.25;3127821;28;19924;-67
2022/06/18 02:52:14;;;;;;;;;;;;;;;21.34;61.59;99727.97;3127551;28;20369;-68
2022/06/18 02:53:45;;;;;;;;;;;;;;;21.31;61.58;99733.56;3127878;28;19929;-68
2022/06/18 02:55:25;;;;;;;;;;;;;;;21.28;62.23;99733.84;3127249;28;20241;-68
2022/06/18 02:56:57;;;;;;;;;;;;;;;21.26;62.28;99733.13;3123381;28;20426;-68
2022/06/18 02:58:31;;;;;;;;;;;;;;;21.23;62.64;99736.06;3123891;28;20425;-68
2022/06/18 03:00:03;;;;;;;;;;;;;;;21.20;62.64;99731.88;3117894;28;19924;-68
2022/06/18 03:01:35;;;;;;;;;;;;;;;21.15;62.93;99734.13;3123151;28;19936;-69
2022/06/18 03:03:08;;;;;;;;;;;;;;;21.08;63.21;99725.03;3122553;28;20054;-67
2022/06/18 03:04:40;;;;;;;;;;;;;;;21.04;63.54;99726.31;3122511;28;19925;-68
2022/06/18 03:06:12;;;;;;;;;;;;;;;21.03;63.43;99736.06;3121559;28;19932;-68
2022/06/18 03:07:43;;;;;;;;;;;;;;;21.04;63.32;99734.25;3122599;28;20419;-68
2022/06/18 03:09:15;;;;;;;;;;;;;;;21.08;63.08;99739.09;3122701;28;19931;-69
2022/06/18 03:12:35;;;;;;;;;;;;;;;21.13;62.71;99739.53;3121210;28;19924;-67
2022/06/18 03:14:10;;;;;;;;;;;;;;;21.15;62.60;99736.75;3127472;28;20001;-68
2022/06/18 03:15:41;;;;;;;;;;;;;;;21.19;62.38;99737.31;3127267;28;20358;-68
2022/06/18 03:17:13;;;;;;;;;;;;;;;21.17;62.86;99736.59;3127610;28;20085;-67
2022/06/18 03:18:45;;;;;;;;;;;;;;;21.17;62.95;99734.78;3126754;28;19924;-68
2022/06/18 03:20:19;;;;;;;;;;;;;;;21.17;62.75;99737.44;3127338;28;20489;-69
2022/06/18 03:21:52;;;;;;;;;;;;;;;21.21;62.35;99741.50;3128844;28;19936;-68
2022/06/18 03:23:24;;;;;;;;;;;;;;;21.23;62.57;99742.19;3130024;28;19929;-68
2022/06/18 03:24:56;;;;;;;;;;;;;;;21.26;62.38;99747.19;3129545;28;20028;-68
2022/06/18 03:26:27;;;;;;;;;;;;;;;21.28;62.14;99741.78;3129904;28;20027;-69
2022/06/18 03:27:59;;;;;;;;;;;;;;;21.29;62.04;99743.44;3129835;28;19936;-69
2022/06/18 03:29:32;;;;;;;;;;;;;;;21.28;62.03;99742.59;3130196;28;19925;-68
2022/06/18 03:31:03;;;;;;;;;;;;;;;21.30;62.25;99742.47;3129510;28;20605;-68
2022/06/18 03:32:35;;;;;;;;;;;;;;;21.31;61.85;99742.31;3129908;28;20080;-69
2022/06/18 03:34:07;;;;;;;;;;;;;;;21.34;61.81;99746.50;3129641;28;20016;-68
2022/06/18 03:35:40;;;;;;;;;;;;;;;21.38;61.86;99747.09;3125607;28;20027;-68
2022/06/18 03:37:12;;;;;;;;;;;;;;;21.40;61.78;99740.69;3129437;28;19929;-68
2022/06/18 03:38:43;;;;;;;;;;;;;;;21.41;61.55;99742.34;3129628;28;19983;-69
2022/06/18 03:40:15;;;;;;;;;;;;;;;21.45;61.47;99734.97;3129788;28;19984;-68
2022/06/18 03:41:46;;;;;;;;;;;;;;;21.48;61.48;99734.69;3129642;28;20322;-68
2022/06/18 03:43:18;;;;;;;;;;;;;;;21.49;61.43;99745.13;3129442;28;19925;-69
2022/06/18 03:44:52;;;;;;;;;;;;;;;21.51;61.27;99743.19;3129527;28;19924;-68
2022/06/18 03:46:23;;;;;;;;;;;;;;;21.55;61.04;99744.56;3129483;28;19929;-68
2022/06/18 03:47:55;;;;;;;;;;;;;;;21.56;61.16;99745.41;3129101;28;19951;-68
2022/06/18 03:49:28;;;;;;;;;;;;;;;21.58;61.03;99739.00;3129523;28;19925;-68
2022/06/18 03:50:59;;;;;;;;;;;;;;;21.63;60.60;99743.06;3129376;28;19924;-68
2022/06/18 03:52:31;;;;;;;;;;;;;;;21.65;60.94;99744.59;3129445;28;20174;-68
2022/06/18 03:54:02;;;;;;;;;;;;;;;21.68;60.63;99748.75;3129470;28;20059;-68
2022/06/18 03:55:33;;;;;;;;;;;;;;;21.71;60.39;99748.44;3129141;28;20348;-68
2022/06/18 03:57:05;;;;;;;;;;;;;;;21.72;60.74;99745.69;3129135;28;20015;-68
2022/06/18 03:58:37;;;;;;;;;;;;;;;21.74;60.57;99749.03;3129620;28;19931;-68
2022/06/18 04:00:14;;;;;;;;;;;;;;;21.72;60.35;99745.69;3129324;28;19925;-70
2022/06/18 04:01:46;;;;;;;;;;;;;;;21.75;60.28;99739.25;3129154;28;19994;-69
2022/06/18 04:03:17;;;;;;;;;;;;;;;21.77;60.55;99739.97;3129073;28;19929;-68
2022/06/18 04:04:48;;;;;;;;;;;;;;;21.78;60.12;99737.16;3129078;28;19924;-67
2022/06/18 04:06:20;;;;;;;;;;;;;;;21.81;60.14;99746.63;3124363;28;20467;-68
2022/06/18 04:07:51;;;;;;;;;;;;;;;21.82;59.99;99737.69;3129143;28;19928;-69
2022/06/18 04:09:22;;;;;;;;;;;;;;;21.86;60.06;99741.75;3129224;28;19924;-69
2022/06/18 04:10:54;;;;;;;;;;;;;;;21.86;59.95;99741.75;3129293;28;19934;-70
2022/06/18 04:12:24;;;;;;;;;;;;;;;21.85;59.84;99742.72;3128988;28;19925;-68
2022/06/18 04:13:56;;;;;;;;;;;;;;;21.87;59.82;99747.88;3128848;28;19924;-69
2022/06/18 04:15:29;;;;;;;;;;;;;;;21.88;59.94;99747.72;3129415;28;19925;-69
2022/06/18 04:17:02;;;;;;;;;;;;;;;21.88;59.72;99742.44;3128588;28;19924;-69
2022/06/18 04:18:33;;;;;;;;;;;;;;;21.87;59.49;99747.88;3129147;28;19925;-69
2022/06/18 04:20:06;;;;;;;;;;;;;;;21.88;59.46;99750.38;3129119;28;19994;-69
2022/06/18 04:21:37;;;;;;;;;;;;;;;21.92;59.23;99749.13;3129181;28;20014;-69
2022/06/18 04:23:09;;;;;;;;;;;;;;;21.92;59.43;99751.78;3129106;28;19939;-68
2022/06/18 04:24:41;;;;;;;;;;;;;;;21.94;59.59;99752.47;3129631;28;20110;-68
2022/06/18 04:26:13;;;;;;;;;;;;;;;21.97;59.37;99751.34;3129151;28;19931;-69
2022/06/18 04:27:45;;;;;;;;;;;;;;;22.00;59.35;99743.94;3129295;28;19971;-69
2022/06/18 04:29:16;;;;;;;;;;;;;;;22.04;58.93;99747.97;3130022;28;19990;-69
2022/06/18 04:30:50;;;;;;;;;;;;;;;22.10;58.94;99751.03;3129037;28;19925;-68
2022/06/18 04:32:20;;;;;;;;;;;;;;;22.13;58.92;99737.50;3129289;28;19928;-68
2022/06/18 04:33:52;;;;;;;;;;;;;;;22.19;58.81;99742.25;3128547;28;19925;-68
2022/06/18 04:35:23;;;;;;;;;;;;;;;22.23;58.92;99744.44;3128976;28;19924;-68
2022/06/18 04:36:54;;;;;;;;;;;;;;;22.26;58.89;99738.84;3129379;28;20061;-68
2022/06/18 04:38:27;;;;;;;;;;;;;;;22.31;58.73;99745.56;3129409;28;19924;-68
2022/06/18 04:39:58;;;;;;;;;;;;;;;22.35;58.30;99745.09;3128875;28;19925;-68
2022/06/18 04:41:30;;;;;;;;;;;;;;;22.41;58.18;99752.47;3129321;28;19924;-68
2022/06/18 04:43:02;;;;;;;;;;;;;;;22.45;58.27;99755.66;3128718;28;19924;-67
2022/06/18 04:44:34;;;;;;;;;;;;;;;22.49;58.02;99757.88;3129102;28;19924;-68
2022/06/18 04:46:07;;;;;;;;;;;;;;;22.54;57.52;99756.59;3128527;28;19995;-68
2022/06/18 04:47:40;;;;;;;;;;;;;;;22.57;57.65;99749.19;3126549;28;20402;-69
2022/06/18 04:49:11;;;;;;;;;;;;;;;22.59;57.50;99752.53;3124762;28;19928;-69
2022/06/18 04:50:45;;;;;;;;;;;;;;;22.61;57.33;99753.22;3125254;28;20332;-69
2022/06/18 04:52:18;;;;;;;;;;;;;;;22.64;57.16;99752.09;3124621;28;19925;-69
2022/06/18 04:53:49;;;;;;;;;;;;;;;22.67;57.56;99762.41;3124092;28;19960;-69
2022/06/18 04:55:20;;;;;;;;;;;;;;;22.70;57.19;99754.97;3125371;28;19952;-68
2022/06/18 04:56:52;;;;;;;;;;;;;;;22.69;57.24;99757.81;3124967;28;20011;-68
2022/06/18 04:58:23;;;;;;;;;;;;;;;22.74;57.16;99760.00;3128793;28;20519;-68
2022/06/18 04:59:55;;;;;;;;;;;;;;;22.76;57.12;99758.88;3128847;28;19924;-68
2022/06/18 05:01:31;;;;;;;;;;;;;;;22.80;56.94;99762.88;3128807;28;19982;-69
2022/06/18 05:03:03;;;;;;;;;;;;;;;22.80;56.86;99760.22;3127561;28;20044;-69
2022/06/18 05:04:34;;;;;;;;;;;;;;;22.84;56.92;99764.28;3128605;28;20317;-69
2022/06/18 05:06:06;;;;;;;;;;;;;;;22.83;56.80;99762.59;3130660;28;19929;-70
2022/06/18 05:07:37;;;;;;;;;;;;;;;22.88;56.88;99759.50;3128603;28;19936;-68
2022/06/18 05:09:08;;;;;;;;;;;;;;;22.88;56.79;99765.63;3128737;28;20269;-69
2022/06/18 05:10:40;;;;;;;;;;;;;;;22.88;56.80;99765.63;3127186;28;20383;-69
2022/06/18 05:12:12;;;;;;;;;;;;;;;22.86;56.45;99762.28;3128683;28;19939;-69
2022/06/18 05:13:44;;;;;;;;;;;;;;;22.87;56.54;99768.47;3128890;28;19929;-69
2022/06/18 05:15:15;;;;;;;;;;;;;;;22.85;56.84;99771.25;3128606;28;19924;-69
2022/06/18 05:16:48;;;;;;;;;;;;;;;22.87;56.70;99777.25;3128614;28;19935;-69
2022/06/18 05:18:22;;;;;;;;;;;;;;;22.84;56.91;99774.91;3128551;28;19925;-69
2022/06/18 05:19:53;;;;;;;;;;;;;;;22.84;56.84;99780.22;3123651;28;19979;-69
2022/06/18 05:21:25;;;;;;;;;;;;;;;22.83;57.13;99781.16;3128281;28;19925;-69
2022/06/18 05:22:56;;;;;;;;;;;;;;;22.84;56.91;99785.50;3128320;28;19925;-69
2022/06/18 05:24:28;;;;;;;;;;;;;;;22.87;56.89;99787.03;3128578;28;19931;-69
2022/06/18 05:26:01;;;;;;;;;;;;;;;22.87;57.03;99790.53;3128340;28;19978;-69
2022/06/18 05:27:33;;;;;;;;;;;;;;;22.89;57.24;99788.56;3128095;28;19977;-68
2022/06/18 05:29:05;;;;;;;;;;;;;;;22.93;56.99;99792.59;3131140;28;20015;-66
2022/06/18 05:30:36;;;;;;;;;;;;;;;22.96;57.29;99793.31;3128366;28;19925;-67
2022/06/18 05:32:09;;;;;;;;;;;;;;;22.95;57.07;99787.16;3128606;28;19931;-67
2022/06/18 05:33:40;;;;;;;;;;;;;;;22.99;57.01;99801.81;3128369;28;19932;-66
2022/06/18 05:35:12;;;;;;;;;;;;;;;22.98;56.98;99793.97;3128684;28;20326;-70
2022/06/18 05:36:44;;;;;;;;;;;;;;;23.00;56.93;99800.81;3127331;28;19924;-67
2022/06/18 05:38:31;;;;;;;;;;;;;;;23.04;56.90;99802.22;3128404;28;19924;-67
2022/06/18 05:40:03;;;;;;;;;;;;;;;23.06;57.02;99799.38;3128354;28;19924;-69
2022/06/18 05:41:34;;;;;;;;;;;;;;;23.07;56.75;99791.28;3128475;28;19928;-68
2022/06/18 05:43:06;;;;;;;;;;;;;;;23.08;56.86;99792.13;3128297;28;19975;-69
2022/06/18 05:44:38;;;;;;;;;;;;;;;23.12;56.82;99794.31;3127592;28;20357;-68
2022/06/18 05:46:40;;;;;;;;;;;;;;;23.17;56.78;99788.56;3128238;28;19924;-64
2022/06/18 05:48:13;;;;;;;;;;;;;;;23.22;56.68;99788.94;3123989;28;19928;-68
2022/06/18 05:49:44;;;;;;;;;;;;;;;23.24;56.64;99791.44;3128282;28;20401;-67
2022/06/18 05:51:16;;;;;;;;;;;;;;;23.23;56.41;99795.91;3127897;28;19925;-66
2022/06/18 05:52:48;;;;;;;;;;;;;;;23.22;56.44;99791.59;3128167;28;20343;-65
2022/06/18 05:54:18;;;;;;;;;;;;;;;23.18;56.49;99782.25;3128102;28;19958;-64
2022/06/18 05:55:51;;;;;;;;;;;;;;;23.23;56.30;99790.59;3128234;28;20455;-65
2022/06/18 05:57:23;;;;;;;;;;;;;;;23.24;56.07;99794.94;3126926;28;19991;-63
2022/06/18 05:58:54;;;;;;;;;;;;;;;23.25;56.10;99798.41;3127762;28;19990;-66
2022/06/18 06:00:27;;;;;;;;;;;;;;;23.25;55.79;99799.28;3129580;28;20007;-64
2022/06/18 06:01:59;;;;;;;;;;;;;;;23.26;56.02;99798.28;3129203;28;19928;-65
2022/06/18 06:03:32;;;;;;;;;;;;;;;23.29;56.07;99790.00;3127830;28;19983;-65
2022/06/18 06:05:04;;;;;;;;;;;;;;;23.36;55.91;99796.38;3127642;28;19982;-65
2022/06/18 06:06:36;;;;;;;;;;;;;;;23.42;55.60;99800.25;3050866;28;19924;-67
2022/06/18 06:08:08;;;;;;;;;;;;;;;23.45;55.12;99799.09;3127783;28;19925;-68
2022/06/18 06:11:30;;;;;;;;;;;;;;;23.55;54.86;99802.53;3126897;28;20073;-65
2022/06/18 06:13:02;;;;;;;;;;;;;;;23.63;55.05;99797.28;3127837;28;19924;-65
2022/06/18 06:14:33;;;;;;;;;;;;;;;23.69;54.58;99798.47;3128203;28;19925;-65
2022/06/18 06:16:06;;;;;;;;;;;;;;;23.73;54.19;99795.41;3127785;28;19929;-65
2022/06/18 06:17:37;;;;;;;;;;;;;;;23.79;54.15;99786.81;3127412;28;19931;-65
2022/06/18 06:19:10;;;;;;;;;;;;;;;23.88;54.36;99800.19;3127246;28;20393;-65
2022/06/18 06:20:42;;;;;;;;;;;;;;;23.95;53.62;99790.56;3128282;28;19924;-66
2022/06/18 06:22:14;;;;;;;;;;;;;;;24.04;53.35;99793.13;3128110;28;19959;-65
2022/06/18 06:23:46;;;;;;;;;;;;;;;24.07;53.13;99779.50;3128065;28;19925;-65
2022/06/18 06:25:17;;;;;;;;;;;;;;;24.18;52.94;99797.06;3127692;28;19925;-65
2022/06/18 06:26:49;;;;;;;;;;;;;;;24.26;53.00;99793.63;3128097;28;19928;-66
2022/06/18 06:28:27;;;;;;;;;;;;;;;24.32;52.38;99794.81;3127996;28;19924;-73
2022/06/18 06:29:59;;;;;;;;;;;;;;;24.35;51.96;99795.31;3124119;28;19998;-67
2022/06/18 06:31:31;;;;;;;;;;;;;;;24.39;51.98;99794.00;3127546;28;20054;-68
2022/06/18 06:33:02;;;;;;;;;;;;;;;24.45;52.02;99792.56;3127788;28;20008;-67
2022/06/18 06:34:35;;;;;;;;;;;;;;;24.53;51.66;99792.63;3128014;28;19924;-67
2022/06/18 06:36:07;;;;;;;;;;;;;;;24.58;50.82;99798.31;3127748;28;19925;-68
2022/06/18 06:37:39;;;;;;;;;;;;;;;24.66;50.87;99794.81;3127713;28;19987;-69
2022/06/18 06:39:10;;;;;;;;;;;;;;;24.68;50.06;99782.19;3127261;28;20386;-68
2022/06/18 06:40:43;;;;;;;;;;;;;;;24.70;50.52;99796.19;3127902;28;20119;-68
2022/06/18 06:42:15;;;;;;;;;;;;;;;24.69;49.94;99799.84;3127895;28;19933;-68
2022/06/18 06:43:46;;;;;;;;;;;;;;;24.66;49.89;99794.81;3127403;28;19946;-70
2022/06/18 06:45:20;;;;;;;;;;;;;;;24.66;49.90;99800.16;3128068;28;19939;-69
2022/06/18 06:46:52;;;;;;;;;;;;;;;24.70;50.05;99796.19;3127704;28;19924;-73
2022/06/18 06:48:23;;;;;;;;;;;;;;;24.70;49.84;99804.19;3127474;28;20393;-69
2022/06/18 06:49:55;;;;;;;;;;;;;;;24.66;49.62;99800.97;3127731;28;19928;-66
2022/06/18 06:51:28;;;;;;;;;;;;;;;24.63;49.82;99798.63;3127308;28;20123;-66
2022/06/18 06:53:00;;;;;;;;;;;;;;;24.62;49.70;99804.97;3126168;28;19959;-67
2022/06/18 06:54:32;;;;;;;;;;;;;;;24.63;49.62;99795.97;3127394;28;20850;-66
2022/06/18 06:57:51;;;;;;;;;;;;;;;24.65;49.87;99798.50;3126691;28;20374;-66
2022/06/18 06:59:23;;;;;;;;;;;;;;;24.66;49.47;99800.16;3126812;28;19931;-67
2022/06/18 07:00:56;;;;;;;;;;;;;;;24.66;49.44;99800.97;3125715;28;20343;-66
2022/06/18 07:02:29;;;;;;;;;;;;;;;24.67;49.58;99801.84;3127680;28;19973;-65
2022/06/18 07:04:01;;;;;;;;;;;;;;;24.65;49.58;99804.66;3126114;28;20520;-66
2022/06/18 07:05:34;;;;;;;;;;;;;;;24.62;48.99;99804.97;3124225;28;19924;-67
2022/06/18 07:07:06;;;;;;;;;;;;;;;24.54;49.10;99807.59;3122646;28;20392;-68
2022/06/18 07:08:37;;;;;;;;;;;;;;;24.48;49.14;99809.06;3130243;28;19925;-68
2022/06/18 07:10:10;;;;;;;;;;;;;;;24.50;49.64;99803.59;3129766;28;19932;-68
2022/06/18 07:11:43;;;;;;;;;;;;;;;24.46;49.23;99800.41;3130172;28;20419;-65
2022/06/18 07:13:14;;;;;;;;;;;;;;;24.40;49.37;99794.84;3130403;28;20321;-65
2022/06/18 07:14:46;;;;;;;;;;;;;;;24.34;49.72;99795.47;3129889;28;19924;-66
2022/06/18 07:16:18;;;;;;;;;;;;;;;24.29;49.21;99794.13;3130154;28;20193;-67
2022/06/18 07:17:49;;;;;;;;;;;;;;;24.26;49.62;99798.94;3130218;28;19925;-66
2022/06/18 07:19:21;;;;;;;;;;;;;;;24.27;49.69;99801.44;3130066;28;19929;-65
2022/06/18 07:20:54;;;;;;;;;;;;;;;24.31;49.67;99799.28;3130196;28;19985;-66
2022/06/18 07:22:26;;;;;;;;;;;;;;;24.32;49.65;99794.81;3130060;28;20271;-65
2022/06/18 07:23:58;;;;;;;;;;;;;;;24.35;49.49;99799.81;3130330;28;19933;-65
2022/06/18 07:25:29;;;;;;;;;;;;;;;24.34;49.71;99790.97;3129982;28;19997;-66
2022/06/18 07:27:01;;;;;;;;;;;;;;;24.35;49.53;99795.31;3129974;28;20417;-66
2022/06/18 07:28:33;;;;;;;;;;;;;;;24.38;49.55;99802.16;3130592;28;20266;-65
2022/06/18 07:30:07;;;;;;;;;;;;;;;24.39;49.19;99801.16;3133164;28;19952;-68
2022/06/18 07:31:39;;;;;;;;;;;;;;;24.38;49.26;99803.00;3129973;28;20119;-66
2022/06/18 07:33:11;;;;;;;;;;;;;;;24.35;49.18;99794.50;3129797;28;19925;-64
2022/06/18 07:34:42;;;;;;;;;;;;;;;24.36;49.40;99804.13;3124582;28;19925;-64
2022/06/18 07:36:15;;;;;;;;;;;;;;;24.39;49.31;99802.00;3128403;28;19931;-63
2022/06/18 07:37:47;;;;;;;;;;;;;;;24.44;49.35;99805.06;3129459;28;20322;-64
2022/06/18 07:39:19;;;;;;;;;;;;;;;24.46;49.26;99800.41;3129810;28;20023;-65
2022/06/18 07:40:51;;;;;;;;;;;;;;;24.52;49.03;99798.91;3129649;28;19928;-67
2022/06/18 07:42:24;;;;;;;;;;;;;;;24.56;48.99;99800.28;3130404;28;19925;-65
2022/06/18 07:43:57;;;;;;;;;;;;;;;24.61;49.26;99797.97;3129835;28;19929;-65
2022/06/18 07:45:28;;;;;;;;;;;;;;;24.63;49.27;99806.63;3129529;28;20415;-65
2022/06/18 07:47:01;;;;;;;;;;;;;;;24.66;48.97;99802.81;3129350;28;19925;-65
2022/06/18 07:48:33;;;;;;;;;;;;;;;24.65;48.85;99799.31;3128826;28;19931;-65
2022/06/18 07:50:04;;;;;;;;;;;;;;;24.67;48.80;99808.00;3130051;28;20704;-65
2022/06/18 07:51:37;;;;;;;;;;;;;;;24.70;48.71;99805.00;3128864;28;19935;-65
2022/06/18 07:53:09;;;;;;;;;;;;;;;24.71;48.45;99809.34;3129431;28;19925;-65
2022/06/18 07:54:41;;;;;;;;;;;;;;;24.72;48.41;99805.66;3129734;28;19925;-66
2022/06/18 07:56:14;;;;;;;;;;;;;;;24.77;48.49;99807.03;3129429;28;20693;-64
2022/06/18 07:57:46;;;;;;;;;;;;;;;24.78;48.28;99809.50;3129451;28;19924;-64
2022/06/18 07:59:18;;;;;;;;;;;;;;;24.79;48.68;99815.66;3129349;28;19925;-63
2022/06/18 08:00:49;;;;;;;;;;;;;;;24.82;48.75;99807.38;3129898;28;19959;-64
2022/06/18 08:02:21;;;;;;;;;;;;;;;24.83;48.46;99814.38;3129323;28;19978;-65
2022/06/18 08:03:52;;;;;;;;;;;;;;;24.83;48.31;99806.38;3129375;28;19924;-65
2022/06/18 08:05:27;;;;;;;;;;;;;;;24.86;48.80;99804.22;3129536;28;19936;-64
2022/06/18 08:07:01;;;;;;;;;;;;;;;24.88;48.34;99807.56;3129230;28;20298;-65
2022/06/18 08:08:33;;;;;;;;;;;;;;;24.91;48.52;99814.41;3128422;28;20446;-68
2022/06/18 08:10:05;;;;;;;;;;;;;;;24.95;48.76;99805.09;3129231;28;20289;-67